createdAt,value
2023-02-27T00:01:37.052Z,9.68
2023-02-27T00:04:06.466Z,9.72
2023-02-27T00:06:37.183Z,9.75
2023-02-27T00:09:06.997Z,9.78
2023-02-27T00:11:38.672Z,9.79
2023-02-27T00:14:08.483Z,9.82
2023-02-27T00:16:37.763Z,9.82
2023-02-27T00:19:07.182Z,9.81
2023-02-27T00:21:38.137Z,9.78
2023-02-27T00:24:08.851Z,9.76
2023-02-27T00:26:38.180Z,9.73
2023-02-27T00:29:08.190Z,9.71
2023-02-27T00:31:37.474Z,9.67
2023-02-27T00:34:06.933Z,9.65
2023-02-27T00:36:37.688Z,9.64
2023-02-27T00:39:07.191Z,9.67
2023-02-27T00:41:36.603Z,9.68
2023-02-27T00:44:06.172Z,9.67
2023-02-27T00:46:35.686Z,9.67
2023-02-27T00:50:34.088Z,9.69
2023-02-27T00:53:03.410Z,9.72
2023-02-27T00:55:32.686Z,9.72
2023-02-27T00:58:02.042Z,9.72
2023-02-27T01:00:31.771Z,9.72
2023-02-27T01:03:01.135Z,9.72
2023-02-27T01:05:30.491Z,9.72
2023-02-27T01:08:01.337Z,9.76
2023-02-27T01:10:30.656Z,9.80
2023-02-27T01:12:59.978Z,9.83
2023-02-27T01:15:29.281Z,9.86
2023-02-27T01:17:58.821Z,9.88
2023-02-27T01:20:28.237Z,9.89
2023-02-27T01:22:57.596Z,9.90
2023-02-27T01:25:28.393Z,9.91
2023-02-27T01:27:57.890Z,9.89
2023-02-27T01:30:27.202Z,9.91
2023-02-27T01:32:56.683Z,9.88
2023-02-27T01:35:26.029Z,9.89
2023-02-27T01:37:55.350Z,9.88
2023-02-27T01:40:24.834Z,9.89
2023-02-27T01:42:55.862Z,9.88
2023-02-27T01:45:39.553Z,9.85
2023-02-27T01:48:17.253Z,9.84
2023-02-27T01:50:52.415Z,9.84
2023-02-27T01:53:26.116Z,9.83
2023-02-27T01:55:58.166Z,9.82
2023-02-27T01:58:29.471Z,9.83
2023-02-27T02:00:59.713Z,9.80
2023-02-27T02:03:41.580Z,9.74
2023-02-27T02:06:11.720Z,9.68
2023-02-27T02:08:46.543Z,9.68
2023-02-27T02:11:19.799Z,9.65
2023-02-27T02:13:55.113Z,9.60
2023-02-27T02:16:45.969Z,9.57
2023-02-27T02:19:57.099Z,9.52
2023-02-27T02:23:19.630Z,9.41
2023-02-27T02:26:19.891Z,9.30
2023-02-27T02:29:44.431Z,9.25
2023-02-27T02:33:12.187Z,9.17
2023-02-27T02:36:47.354Z,9.08
2023-02-27T02:40:07.766Z,9.00
2023-02-27T02:42:44.288Z,8.99
2023-02-27T02:45:22.079Z,9.01
2023-02-27T02:48:06.057Z,8.90
2023-02-27T02:50:43.137Z,8.77
2023-02-27T02:53:37.001Z,8.61
2023-02-27T02:56:14.835Z,8.45
2023-02-27T02:58:53.411Z,8.39
2023-02-27T03:01:28.325Z,8.20
2023-02-27T03:04:04.289Z,8.10
2023-02-27T03:06:37.766Z,8.10
2023-02-27T03:09:13.942Z,8.07
2023-02-27T03:11:49.372Z,7.96
2023-02-27T03:14:30.912Z,7.88
2023-02-27T03:17:06.037Z,7.74
2023-02-27T03:19:42.857Z,7.76
2023-02-27T03:22:17.057Z,7.74
2023-02-27T03:24:50.217Z,7.63
2023-02-27T03:27:22.246Z,7.46
2023-02-27T03:29:57.418Z,7.44
2023-02-27T03:32:34.000Z,7.46
2023-02-27T03:35:04.533Z,7.42
2023-02-27T03:38:00.676Z,7.38
2023-02-27T03:40:36.867Z,7.26
2023-02-27T03:43:20.514Z,7.27
2023-02-27T03:46:00.971Z,7.22
2023-02-27T03:51:34.762Z,7.29
2023-02-27T03:54:10.898Z,7.36
2023-02-27T03:56:46.112Z,7.26
2023-02-27T03:59:16.450Z,7.17
2023-02-27T04:01:47.152Z,7.08
2023-02-27T04:04:19.168Z,7.11
2023-02-27T04:07:14.461Z,7.08
2023-02-27T04:10:18.994Z,7.23
2023-02-27T04:13:19.333Z,7.24
2023-02-27T04:16:15.914Z,7.34
2023-02-27T04:19:05.693Z,7.38
2023-02-27T04:21:43.876Z,7.42
2023-02-27T04:24:32.429Z,7.49
2023-02-27T04:27:10.228Z,7.47
2023-02-27T04:29:50.171Z,7.28
2023-02-27T04:32:27.530Z,7.18
2023-02-27T04:35:01.609Z,7.19
2023-02-27T04:37:36.610Z,7.19
2023-02-27T04:40:13.709Z,7.36
2023-02-27T04:42:48.336Z,7.45
2023-02-27T04:45:21.428Z,7.42
2023-02-27T04:47:57.016Z,7.44
2023-02-27T04:50:31.360Z,7.49
2023-02-27T04:53:09.065Z,7.60
2023-02-27T04:55:46.903Z,7.70
2023-02-27T04:58:24.450Z,7.67
2023-02-27T05:01:01.154Z,7.68
2023-02-27T05:03:37.371Z,7.68
2023-02-27T05:06:07.368Z,7.82
2023-02-27T05:08:43.311Z,7.86
2023-02-27T05:11:22.636Z,7.95
2023-02-27T05:13:56.416Z,7.95
2023-02-27T05:16:33.323Z,7.90
2023-02-27T05:19:04.733Z,7.82
2023-02-27T05:21:40.548Z,7.65
2023-02-27T05:24:20.139Z,7.47
2023-02-27T05:27:12.234Z,7.36
2023-02-27T05:29:50.096Z,7.28
2023-02-27T05:32:32.280Z,7.24
2023-02-27T05:35:14.398Z,7.22
2023-02-27T05:37:49.849Z,7.16
2023-02-27T05:40:25.697Z,7.10
2023-02-27T05:43:03.712Z,7.08
2023-02-27T05:45:36.009Z,7.10
2023-02-27T05:48:10.466Z,7.09
2023-02-27T05:50:41.727Z,7.00
2023-02-27T05:53:17.872Z,7.00
2023-02-27T05:55:51.799Z,6.98
2023-02-27T05:58:27.900Z,6.92
2023-02-27T06:01:01.567Z,6.89
2023-02-27T06:03:34.920Z,6.88
2023-02-27T06:06:07.861Z,6.93
2023-02-27T06:08:38.229Z,7.00
2023-02-27T06:11:08.354Z,7.00
2023-02-27T06:13:41.729Z,7.05
2023-02-27T06:16:14.210Z,7.10
2023-02-27T06:18:43.619Z,7.09
2023-02-27T06:21:16.860Z,7.13
2023-02-27T06:23:46.236Z,7.15
2023-02-27T06:26:15.958Z,7.23
2023-02-27T06:28:46.788Z,7.37
2023-02-27T06:31:16.436Z,7.52
2023-02-27T06:33:49.108Z,7.75
2023-02-27T06:36:18.650Z,7.94
2023-02-27T06:38:47.959Z,8.15
2023-02-27T06:41:17.432Z,8.36
2023-02-27T06:43:48.334Z,8.53
2023-02-27T06:46:17.711Z,8.66
2023-02-27T06:51:33.966Z,8.88
2023-02-27T06:54:03.615Z,9.10
2023-02-27T06:56:33.029Z,9.31
2023-02-27T06:59:02.347Z,9.56
2023-02-27T07:01:31.714Z,9.76
2023-02-27T07:04:01.760Z,9.86
2023-02-27T07:07:36.133Z,10.02
2023-02-27T07:09:23.324Z,10.19
2023-02-27T07:11:53.705Z,10.32
2023-02-27T07:14:23.582Z,10.49
2023-02-27T07:16:55.320Z,10.52
2023-02-27T07:19:26.202Z,10.67
2023-02-27T07:21:56.916Z,10.82
2023-02-27T07:24:26.448Z,10.92
2023-02-27T07:26:55.978Z,10.99
2023-02-27T07:29:25.267Z,11.02
2023-02-27T07:31:54.657Z,11.08
2023-02-27T07:34:23.923Z,11.15
2023-02-27T07:36:53.341Z,11.16
2023-02-27T07:39:24.187Z,11.24
2023-02-27T07:41:53.633Z,11.37
2023-02-27T07:44:23.097Z,11.56
2023-02-27T07:46:52.652Z,11.69
2023-02-27T07:49:22.042Z,11.82
2023-02-27T07:51:51.669Z,11.91
2023-02-27T07:54:22.688Z,12.02
2023-02-27T07:56:52.182Z,12.22
2023-02-27T07:59:21.663Z,12.40
2023-02-27T08:01:51.105Z,12.67
2023-02-27T08:04:20.405Z,12.92
2023-02-27T08:06:49.854Z,13.04
2023-02-27T08:09:19.492Z,13.10
2023-02-27T08:11:50.170Z,13.13
2023-02-27T08:14:19.584Z,13.46
2023-02-27T08:16:48.857Z,13.64
2023-02-27T08:19:18.465Z,13.87
2023-02-27T08:21:47.839Z,14.11
2023-02-27T08:24:17.290Z,14.32
2023-02-27T08:26:46.671Z,14.36
2023-02-27T08:29:17.603Z,14.52
2023-02-27T08:31:48.617Z,14.73
2023-02-27T08:34:18.196Z,14.90
2023-02-27T08:37:06.570Z,14.94
2023-02-27T08:39:35.856Z,14.97
2023-02-27T08:42:05.355Z,15.00
2023-02-27T08:44:36.470Z,14.95
2023-02-27T08:47:06.369Z,14.72
2023-02-27T08:49:36.031Z,14.52
2023-02-27T08:52:05.886Z,14.37
2023-02-27T08:54:35.419Z,14.20
2023-02-27T08:57:05.289Z,14.15
2023-02-27T08:59:36.245Z,14.06
2023-02-27T09:02:06.555Z,14.12
2023-02-27T09:04:36.375Z,14.29
2023-02-27T09:07:06.104Z,14.35
2023-02-27T09:09:35.521Z,14.39
2023-02-27T09:12:04.911Z,14.49
2023-02-27T09:14:35.749Z,14.59
2023-02-27T09:17:05.283Z,14.78
2023-02-27T09:19:34.734Z,14.96
2023-02-27T09:22:04.215Z,15.04
2023-02-27T09:24:33.651Z,15.00
2023-02-27T09:27:03.229Z,14.96
2023-02-27T09:29:32.628Z,15.05
2023-02-27T09:32:03.555Z,15.08
2023-02-27T09:34:33.077Z,14.98
2023-02-27T09:37:02.713Z,14.98
2023-02-27T09:39:32.596Z,15.01
2023-02-27T09:42:06.661Z,15.09
2023-02-27T09:44:47.395Z,15.17
2023-02-27T09:47:27.180Z,15.21
2023-02-27T09:51:33.809Z,15.24
2023-02-27T09:54:04.267Z,15.32
2023-02-27T09:56:37.375Z,15.43
2023-02-27T09:59:15.369Z,15.51
2023-02-27T10:01:52.068Z,15.49
2023-02-27T10:04:41.080Z,15.42
2023-02-27T10:07:19.671Z,15.34
2023-02-27T10:10:06.067Z,15.33
2023-02-27T10:12:48.197Z,15.32
2023-02-27T10:15:26.016Z,15.29
2023-02-27T10:18:10.499Z,15.28
2023-02-27T10:20:56.322Z,15.29
2023-02-27T10:23:43.298Z,15.24
2023-02-27T10:26:20.768Z,15.29
2023-02-27T10:28:50.616Z,15.31
2023-02-27T10:31:26.417Z,15.27
2023-02-27T10:33:58.247Z,15.23
2023-02-27T10:36:34.128Z,15.22
2023-02-27T10:39:09.315Z,15.25
2023-02-27T10:41:40.361Z,15.27
2023-02-27T10:44:11.223Z,15.24
2023-02-27T10:46:42.521Z,15.24
2023-02-27T10:49:19.405Z,15.21
2023-02-27T10:51:49.869Z,15.08
2023-02-27T10:54:24.855Z,14.98
2023-02-27T10:56:58.136Z,15.05
2023-02-27T10:59:30.452Z,15.14
2023-02-27T11:02:03.566Z,15.20
2023-02-27T11:04:36.885Z,15.29
2023-02-27T11:07:16.124Z,15.31
2023-02-27T11:10:03.587Z,15.43
2023-02-27T11:12:35.699Z,15.56
2023-02-27T11:15:25.818Z,15.71
2023-02-27T11:17:55.346Z,15.79
2023-02-27T11:20:40.029Z,15.72
2023-02-27T11:23:18.538Z,15.64
2023-02-27T11:25:49.757Z,15.66
2023-02-27T11:28:28.497Z,15.66
2023-02-27T11:31:03.807Z,15.74
2023-02-27T11:33:42.912Z,15.82
2023-02-27T11:36:12.452Z,15.85
2023-02-27T11:38:41.893Z,15.86
2023-02-27T11:41:12.815Z,15.97
2023-02-27T11:43:51.345Z,16.03
2023-02-27T11:46:47.267Z,16.02
2023-02-27T11:49:33.997Z,15.96
2023-02-27T11:52:12.755Z,15.85
2023-02-27T11:54:46.588Z,15.79
2023-02-27T11:57:27.021Z,15.90
2023-02-27T12:00:03.729Z,16.00
2023-02-27T12:02:47.638Z,16.10
2023-02-27T12:05:21.088Z,16.13
2023-02-27T12:07:57.176Z,16.21
2023-02-27T12:10:30.909Z,16.28
2023-02-27T12:13:06.604Z,16.30
2023-02-27T12:15:46.567Z,16.22
2023-02-27T12:18:24.555Z,16.09
2023-02-27T12:21:00.800Z,15.99
2023-02-27T12:23:40.636Z,15.91
2023-02-27T12:26:19.132Z,15.75
2023-02-27T12:28:59.490Z,15.62
2023-02-27T12:31:49.060Z,15.45
2023-02-27T12:34:28.637Z,15.46
2023-02-27T12:37:05.506Z,15.52
2023-02-27T12:39:36.349Z,15.56
2023-02-27T12:42:45.405Z,15.53
2023-02-27T12:45:43.975Z,15.49
2023-02-27T12:51:48.070Z,15.37
2023-02-27T12:54:38.298Z,15.32
2023-02-27T12:57:30.067Z,15.29
2023-02-27T13:00:15.151Z,15.11
2023-02-27T13:02:58.808Z,15.02
2023-02-27T13:05:43.545Z,15.01
2023-02-27T13:08:45.579Z,15.02
2023-02-27T13:11:28.067Z,15.01
2023-02-27T13:14:02.433Z,14.97
2023-02-27T13:16:36.824Z,14.93
2023-02-27T13:19:14.136Z,14.90
2023-02-27T13:21:51.771Z,14.93
2023-02-27T13:24:28.380Z,14.88
2023-02-27T13:27:03.912Z,14.90
2023-02-27T13:29:47.790Z,14.96
2023-02-27T13:32:43.054Z,14.99
2023-02-27T13:35:28.877Z,15.05
2023-02-27T13:38:02.521Z,15.02
2023-02-27T13:40:42.468Z,14.98
2023-02-27T13:43:51.313Z,14.95
2023-02-27T13:46:25.846Z,14.86
2023-02-27T13:48:55.706Z,14.85
2023-02-27T13:51:49.231Z,14.82
2023-02-27T13:54:29.292Z,14.73
2023-02-27T13:57:25.012Z,14.70
2023-02-27T14:00:10.012Z,14.69
2023-02-27T14:02:59.995Z,14.65
2023-02-27T14:05:37.081Z,14.62
2023-02-27T14:08:16.891Z,14.61
2023-02-27T14:11:00.097Z,14.63
2023-02-27T14:14:02.179Z,14.63
2023-02-27T14:16:58.970Z,14.58
2023-02-27T14:19:57.273Z,14.51
2023-02-27T14:23:19.029Z,14.45
2023-02-27T14:25:52.639Z,14.46
2023-02-27T14:28:31.702Z,14.44
2023-02-27T14:31:06.115Z,14.38
2023-02-27T14:33:45.625Z,14.33
2023-02-27T14:36:21.689Z,14.30
2023-02-27T14:38:52.003Z,14.26
2023-02-27T14:41:39.676Z,14.26
2023-02-27T14:44:22.493Z,14.22
2023-02-27T14:46:55.660Z,14.20
2023-02-27T14:49:31.495Z,14.17
2023-02-27T14:52:14.903Z,14.13
2023-02-27T14:54:45.357Z,14.08
2023-02-27T14:57:20.256Z,14.04
2023-02-27T14:59:51.379Z,14.02
2023-02-27T15:02:28.615Z,13.99
2023-02-27T15:05:18.202Z,13.93
2023-02-27T15:07:50.435Z,13.88
2023-02-27T15:10:26.035Z,13.85
2023-02-27T15:12:55.550Z,13.81
2023-02-27T15:15:25.081Z,13.78
2023-02-27T15:17:57.172Z,13.74
2023-02-27T15:20:31.220Z,13.72
2023-02-27T15:23:01.824Z,13.69
2023-02-27T15:25:33.957Z,13.65
2023-02-27T15:28:06.708Z,13.63
2023-02-27T15:30:36.492Z,13.62
2023-02-27T15:33:15.437Z,13.60
2023-02-27T15:35:47.170Z,13.57
2023-02-27T15:38:28.104Z,13.53
2023-02-27T15:40:59.337Z,13.46
2023-02-27T15:43:30.852Z,13.44
2023-02-27T15:46:01.018Z,13.38
2023-02-27T15:51:33.706Z,13.29
2023-02-27T15:54:05.415Z,13.23
2023-02-27T15:56:38.094Z,13.16
2023-02-27T15:59:08.048Z,13.13
2023-02-27T16:01:38.544Z,13.09
2023-02-27T16:04:20.647Z,13.06
2023-02-27T16:07:00.943Z,13.00
2023-02-27T16:09:33.566Z,12.95
2023-02-27T16:12:29.209Z,12.88
2023-02-27T16:15:26.277Z,12.82
2023-02-27T16:18:03.168Z,12.78
2023-02-27T16:20:42.901Z,12.74
2023-02-27T16:23:25.224Z,12.73
2023-02-27T16:26:28.533Z,12.68
2023-02-27T16:29:00.990Z,12.65
2023-02-27T16:31:33.286Z,12.60
2023-02-27T16:34:14.629Z,12.57
2023-02-27T16:36:53.007Z,12.49
2023-02-27T16:39:24.399Z,12.46
2023-02-27T16:41:55.469Z,12.41
2023-02-27T16:44:25.290Z,12.40
2023-02-27T16:46:56.296Z,12.38
2023-02-27T16:49:28.724Z,12.34
2023-02-27T16:52:02.941Z,12.30
2023-02-27T16:54:33.884Z,12.28
2023-02-27T16:57:03.396Z,12.25
2023-02-27T16:59:35.095Z,12.18
2023-02-27T17:02:08.173Z,12.16
2023-02-27T17:04:37.603Z,12.13
2023-02-27T17:07:07.370Z,12.11
2023-02-27T17:09:38.088Z,12.07
2023-02-27T17:12:07.782Z,12.04
2023-02-27T17:14:37.946Z,12.01
2023-02-27T17:17:08.012Z,11.97
2023-02-27T17:19:37.471Z,11.95
2023-02-27T17:22:06.810Z,11.89
2023-02-27T17:24:39.067Z,11.81
2023-02-27T17:27:08.849Z,11.81
2023-02-27T17:29:40.213Z,11.80
2023-02-27T17:32:09.534Z,11.78
2023-02-27T17:34:39.036Z,11.76
2023-02-27T17:37:08.605Z,11.72
2023-02-27T17:39:41.415Z,11.69
2023-02-27T17:42:12.932Z,11.66
2023-02-27T17:44:44.864Z,11.63
2023-02-27T17:47:14.729Z,11.61
2023-02-27T17:49:44.214Z,11.57
2023-02-27T17:52:13.911Z,11.51
2023-02-27T17:54:44.918Z,11.47
2023-02-27T17:57:14.271Z,11.37
2023-02-27T17:59:44.597Z,11.36
2023-02-27T18:02:15.334Z,11.33
2023-02-27T18:04:44.755Z,11.29
2023-02-27T18:07:14.267Z,11.29
2023-02-27T18:09:46.806Z,11.23
2023-02-27T18:12:15.830Z,11.13
2023-02-27T18:14:45.115Z,11.10
2023-02-27T18:17:14.393Z,11.07
2023-02-27T18:19:45.322Z,11.03
2023-02-27T18:22:16.508Z,10.98
2023-02-27T18:24:47.232Z,10.92
2023-02-27T18:27:16.534Z,10.88
2023-02-27T18:29:45.845Z,10.85
2023-02-27T18:32:15.326Z,10.78
2023-02-27T18:34:44.847Z,10.74
2023-02-27T18:37:14.193Z,10.75
2023-02-27T18:39:43.532Z,10.72
2023-02-27T18:42:14.320Z,10.74
2023-02-27T18:44:43.728Z,10.74
2023-02-27T18:47:13.296Z,10.73
2023-02-27T18:51:33.613Z,10.68
2023-02-27T18:54:05.293Z,10.66
2023-02-27T18:56:34.642Z,10.63
2023-02-27T18:59:05.510Z,10.61
2023-02-27T19:01:39.226Z,10.61
2023-02-27T19:04:11.635Z,10.58
2023-02-27T19:06:44.236Z,10.57
2023-02-27T19:09:16.303Z,10.57
2023-02-27T19:11:48.232Z,10.58
2023-02-27T19:14:18.619Z,10.57
2023-02-27T19:16:50.044Z,10.56
2023-02-27T19:19:20.458Z,10.53
2023-02-27T19:21:51.228Z,10.53
2023-02-27T19:24:20.621Z,10.51
2023-02-27T19:26:51.133Z,10.52
2023-02-27T19:29:21.948Z,10.48
2023-02-27T19:31:51.974Z,10.40
2023-02-27T19:34:21.346Z,10.31
2023-02-27T19:36:52.240Z,10.15
2023-02-27T19:39:22.596Z,10.10
2023-02-27T19:41:51.982Z,10.10
2023-02-27T19:44:21.736Z,10.14
2023-02-27T19:46:52.219Z,10.17
2023-02-27T19:49:22.035Z,10.19
2023-02-27T19:51:52.841Z,10.16
2023-02-27T19:54:22.254Z,10.08
2023-02-27T19:56:52.933Z,9.96
2023-02-27T19:59:24.869Z,9.77
2023-02-27T20:01:54.931Z,9.52
2023-02-27T20:04:24.618Z,9.33
2023-02-27T20:06:55.722Z,9.14
2023-02-27T20:09:27.082Z,8.99
2023-02-27T20:12:00.457Z,8.80
2023-02-27T20:14:30.656Z,8.63
2023-02-27T20:17:00.297Z,8.56
2023-02-27T20:19:30.141Z,8.38
2023-02-27T20:22:00.917Z,8.35
2023-02-27T20:24:30.438Z,8.30
2023-02-27T20:27:00.316Z,8.22
2023-02-27T20:29:30.335Z,8.32
2023-02-27T20:32:00.491Z,8.48
2023-02-27T20:34:30.096Z,8.57
2023-02-27T20:37:01.262Z,8.42
2023-02-27T20:39:31.014Z,8.11
2023-02-27T20:42:00.934Z,7.88
2023-02-27T20:44:30.695Z,7.72
2023-02-27T20:47:00.051Z,7.61
2023-02-27T20:49:29.530Z,7.50
2023-02-27T20:52:00.324Z,7.35
2023-02-27T20:54:29.814Z,7.20
2023-02-27T20:56:59.286Z,7.11
2023-02-27T20:59:28.881Z,6.95
2023-02-27T21:01:59.801Z,6.95
2023-02-27T21:04:42.616Z,6.94
2023-02-27T21:07:15.115Z,6.77
2023-02-27T21:09:44.877Z,6.75
2023-02-27T21:12:14.840Z,6.70
2023-02-27T21:14:45.472Z,6.75
2023-02-27T21:17:15.495Z,6.73
2023-02-27T21:19:44.836Z,7.20
2023-02-27T21:22:17.109Z,7.62
2023-02-27T21:24:46.950Z,7.91
2023-02-27T21:27:19.888Z,8.10
2023-02-27T21:29:50.080Z,8.29
2023-02-27T21:32:22.566Z,8.49
2023-02-27T21:34:51.937Z,8.67
2023-02-27T21:37:22.766Z,8.79
2023-02-27T21:39:55.489Z,8.87
2023-02-27T21:42:24.547Z,8.89
2023-02-27T21:44:53.976Z,8.98
2023-02-27T21:47:23.355Z,9.01
2023-02-27T21:51:40.403Z,9.04
2023-02-27T21:54:13.722Z,9.01
2023-02-27T21:56:44.820Z,8.95
2023-02-27T21:59:15.028Z,8.85
2023-02-27T22:01:48.502Z,8.67
2023-02-27T22:04:19.265Z,8.41
2023-02-27T22:06:51.637Z,8.27
2023-02-27T22:09:21.433Z,7.95
2023-02-27T22:11:51.366Z,7.51
2023-02-27T22:14:20.778Z,7.28
2023-02-27T22:16:50.297Z,7.16
2023-02-27T22:19:22.215Z,7.08
2023-02-27T22:21:52.959Z,6.95
2023-02-27T22:24:22.478Z,6.89
2023-02-27T22:26:51.982Z,6.86
2023-02-27T22:29:21.401Z,6.80
2023-02-27T22:31:51.153Z,6.76
2023-02-27T22:34:20.882Z,6.78
2023-02-27T22:36:53.351Z,6.74
2023-02-27T22:39:23.307Z,6.71
2023-02-27T22:41:56.500Z,6.65
2023-02-27T22:44:26.296Z,6.63
2023-02-27T22:46:57.994Z,6.63
2023-02-27T22:49:27.418Z,6.68
2023-02-27T22:51:58.187Z,6.70
2023-02-27T22:54:27.581Z,6.71
2023-02-27T22:56:58.158Z,6.62
2023-02-27T22:59:28.147Z,6.41
2023-02-27T23:01:57.676Z,6.35
2023-02-27T23:04:27.236Z,6.25
2023-02-27T23:06:58.587Z,6.18
2023-02-27T23:09:28.424Z,6.09
2023-02-27T23:11:59.052Z,6.07
2023-02-27T23:14:28.429Z,5.96
2023-02-27T23:16:57.854Z,5.87
2023-02-27T23:19:27.173Z,5.84
2023-02-27T23:21:58.077Z,5.79
2023-02-27T23:24:27.606Z,5.66
2023-02-27T23:26:57.025Z,5.60
2023-02-27T23:29:26.398Z,5.63
2023-02-27T23:31:55.821Z,5.69
2023-02-27T23:34:25.192Z,5.85
2023-02-27T23:36:54.781Z,6.13
2023-02-27T23:39:25.638Z,6.48
2023-02-27T23:41:57.981Z,6.58
2023-02-27T23:44:28.267Z,6.44
2023-02-27T23:46:57.703Z,6.29
2023-02-27T23:49:27.086Z,6.15
2023-02-27T23:51:56.713Z,6.26
2023-02-27T23:54:27.638Z,6.65
2023-02-27T23:56:57.189Z,6.92
2023-02-27T23:59:30.398Z,7.11
